createdAt,value
2023-05-12T00:00:43.710Z,509.00
2023-05-12T00:01:43.570Z,512.00
2023-05-12T00:02:43.686Z,512.00
2023-05-12T00:03:44.081Z,511.00
2023-05-12T00:04:43.709Z,507.00
2023-05-12T00:05:43.744Z,506.00
2023-05-12T00:06:43.753Z,506.00
2023-05-12T00:07:43.788Z,506.00
2023-05-12T00:08:43.831Z,507.00
2023-05-12T00:09:43.821Z,508.00
2023-05-12T00:10:44.221Z,508.00
2023-05-12T00:11:43.882Z,506.00
2023-05-12T00:12:43.935Z,506.00
2023-05-12T00:13:44.031Z,505.00
2023-05-12T00:14:44.033Z,503.00
2023-05-12T00:15:44.247Z,500.00
2023-05-12T00:16:44.128Z,499.00
2023-05-12T00:17:44.088Z,497.00
2023-05-12T00:18:44.149Z,496.00
2023-05-12T00:19:44.163Z,499.00
2023-05-12T00:20:44.245Z,501.00
2023-05-12T00:21:44.209Z,500.00
2023-05-12T00:22:44.238Z,500.00
2023-05-12T00:23:44.282Z,497.00
2023-05-12T00:24:44.313Z,500.00
2023-05-12T00:25:44.344Z,502.00
2023-05-12T00:26:44.407Z,504.00
2023-05-12T00:27:44.391Z,504.00
2023-05-12T00:28:44.435Z,504.00
2023-05-12T00:29:44.471Z,505.00
2023-05-12T00:30:44.542Z,504.00
2023-05-12T00:31:44.623Z,505.00
2023-05-12T00:32:44.653Z,508.00
2023-05-12T00:33:44.648Z,508.00
2023-05-12T00:34:44.682Z,509.00
2023-05-12T00:35:45.227Z,508.00
2023-05-12T00:36:44.745Z,506.00
2023-05-12T00:37:44.777Z,507.00
2023-05-12T00:38:44.828Z,507.00
2023-05-12T00:39:44.866Z,508.00
2023-05-12T00:40:45.247Z,507.00
2023-05-12T00:41:44.942Z,507.00
2023-05-12T00:43:09.500Z,522.00
2023-05-12T00:44:09.481Z,525.00
2023-05-12T00:45:09.468Z,522.00
2023-05-12T00:46:09.992Z,521.00
2023-05-12T00:47:09.453Z,521.00
2023-05-12T00:48:09.487Z,521.00
2023-05-12T00:49:09.441Z,522.00
2023-05-12T00:50:09.442Z,522.00
2023-05-12T00:51:09.415Z,522.00
2023-05-12T00:52:09.419Z,521.00
2023-05-12T00:53:09.392Z,519.00
2023-05-12T00:54:09.429Z,518.00
2023-05-12T00:55:09.405Z,517.00
2023-05-12T00:56:09.481Z,515.00
2023-05-12T00:57:09.383Z,514.00
2023-05-12T00:58:09.411Z,514.00
2023-05-12T00:59:09.400Z,514.00
2023-05-12T01:00:09.355Z,512.00
2023-05-12T01:01:09.496Z,513.00
2023-05-12T01:02:09.468Z,511.00
2023-05-12T01:03:09.458Z,508.00
2023-05-12T01:04:09.352Z,507.00
2023-05-12T01:05:09.338Z,508.00
2023-05-12T01:06:09.346Z,511.00
2023-05-12T01:07:09.292Z,511.00
2023-05-12T01:08:09.293Z,510.00
2023-05-12T01:09:09.301Z,511.00
2023-05-12T01:10:09.301Z,510.00
2023-05-12T01:11:09.274Z,511.00
2023-05-12T01:12:09.281Z,509.00
2023-05-12T01:13:09.289Z,508.00
2023-05-12T01:14:09.239Z,506.00
2023-05-12T01:15:09.288Z,505.00
2023-05-12T01:16:09.251Z,502.00
2023-05-12T01:17:09.296Z,502.00
2023-05-12T01:18:09.312Z,503.00
2023-05-12T01:19:09.301Z,505.00
2023-05-12T01:20:09.234Z,503.00
2023-05-12T01:21:09.497Z,501.00
2023-05-12T01:22:09.228Z,499.00
2023-05-12T01:23:09.213Z,498.00
2023-05-12T01:24:09.264Z,503.00
2023-05-12T01:25:09.163Z,504.00
2023-05-12T01:26:09.200Z,506.00
2023-05-12T01:27:09.175Z,501.00
2023-05-12T01:28:09.247Z,501.00
2023-05-12T01:29:09.256Z,502.00
2023-05-12T01:30:09.302Z,501.00
2023-05-12T01:31:09.424Z,501.00
2023-05-12T01:32:09.384Z,500.00
2023-05-12T01:33:09.437Z,497.00
2023-05-12T01:34:09.480Z,495.00
2023-05-12T01:35:09.549Z,494.00
2023-05-12T01:36:09.967Z,493.00
2023-05-12T01:37:09.605Z,491.00
2023-05-12T01:38:09.654Z,489.00
2023-05-12T01:39:09.668Z,491.00
2023-05-12T01:40:09.786Z,490.00
2023-05-12T01:41:09.781Z,491.00
2023-05-12T01:42:09.799Z,493.00
2023-05-12T01:43:09.866Z,494.00
2023-05-12T01:44:09.910Z,494.00
2023-05-12T01:45:09.961Z,493.00
2023-05-12T01:46:10.499Z,493.00
2023-05-12T01:47:10.040Z,492.00
2023-05-12T01:48:10.087Z,491.00
2023-05-12T01:49:10.101Z,493.00
2023-05-12T01:50:10.160Z,495.00
2023-05-12T01:51:10.485Z,499.00
2023-05-12T01:52:10.246Z,499.00
2023-05-12T01:53:10.266Z,498.00
2023-05-12T01:54:10.277Z,499.00
2023-05-12T01:55:10.371Z,498.00
2023-05-12T01:56:10.402Z,499.00
2023-05-12T01:57:10.407Z,501.00
2023-05-12T01:58:10.467Z,499.00
2023-05-12T01:59:10.600Z,495.00
2023-05-12T02:00:10.530Z,494.00
2023-05-12T02:01:10.593Z,489.00
2023-05-12T02:02:10.728Z,487.00
2023-05-12T02:03:10.740Z,488.00
2023-05-12T02:04:10.796Z,487.00
2023-05-12T02:05:10.721Z,488.00
2023-05-12T02:06:10.791Z,489.00
2023-05-12T02:07:11.460Z,491.00
2023-05-12T02:08:10.899Z,492.00
2023-05-12T02:09:10.930Z,491.00
2023-05-12T02:10:10.978Z,492.00
2023-05-12T02:11:11.052Z,493.00
2023-05-12T02:12:11.139Z,493.00
2023-05-12T02:13:11.154Z,491.00
2023-05-12T02:14:11.203Z,491.00
2023-05-12T02:15:11.264Z,492.00
2023-05-12T02:16:11.536Z,495.00
2023-05-12T02:17:11.330Z,497.00
2023-05-12T02:18:11.384Z,496.00
2023-05-12T02:19:11.466Z,496.00
2023-05-12T02:20:11.435Z,497.00
2023-05-12T02:21:11.508Z,499.00
2023-05-12T02:22:11.547Z,499.00
2023-05-12T02:23:11.572Z,500.00
2023-05-12T02:24:13.542Z,501.00
2023-05-12T02:25:11.592Z,499.00
2023-05-12T02:26:11.989Z,498.00
2023-05-12T02:27:11.616Z,497.00
2023-05-12T02:28:11.570Z,496.00
2023-05-12T02:29:11.595Z,497.00
2023-05-12T02:30:11.568Z,500.00
2023-05-12T02:31:11.560Z,499.00
2023-05-12T02:32:11.686Z,501.00
2023-05-12T02:33:11.578Z,500.00
2023-05-12T02:34:11.543Z,500.00
2023-05-12T02:35:11.518Z,499.00
2023-05-12T02:36:11.542Z,500.00
2023-05-12T02:37:11.536Z,497.00
2023-05-12T02:38:11.508Z,497.00
2023-05-12T02:39:11.539Z,497.00
2023-05-12T02:40:11.489Z,495.00
2023-05-12T02:41:11.531Z,496.00
2023-05-12T02:42:11.507Z,495.00
2023-05-12T02:43:11.484Z,494.00
2023-05-12T02:44:11.454Z,494.00
2023-05-12T02:45:11.460Z,493.00
2023-05-12T02:46:11.499Z,493.00
2023-05-12T02:47:11.476Z,494.00
2023-05-12T02:48:11.466Z,493.00
2023-05-12T02:49:11.415Z,492.00
2023-05-12T02:50:11.429Z,492.00
2023-05-12T02:51:11.418Z,492.00
2023-05-12T02:52:11.537Z,492.00
2023-05-12T02:53:11.424Z,495.00
2023-05-12T02:54:11.417Z,494.00
2023-05-12T02:55:11.414Z,492.00
2023-05-12T02:56:11.418Z,491.00
2023-05-12T02:57:11.369Z,490.00
2023-05-12T02:58:11.382Z,490.00
2023-05-12T02:59:11.379Z,491.00
2023-05-12T03:00:11.403Z,490.00
2023-05-12T03:01:11.852Z,492.00
2023-05-12T03:02:11.631Z,492.00
2023-05-12T03:03:11.393Z,494.00
2023-05-12T03:04:11.386Z,494.00
2023-05-12T03:05:11.419Z,495.00
2023-05-12T03:06:11.486Z,496.00
2023-05-12T03:07:12.036Z,496.00
2023-05-12T03:08:11.546Z,497.00
2023-05-12T03:09:11.590Z,498.00
2023-05-12T03:10:11.694Z,499.00
2023-05-12T03:11:11.711Z,500.00
2023-05-12T03:12:11.784Z,497.00
2023-05-12T03:13:11.809Z,498.00
2023-05-12T03:14:11.853Z,498.00
2023-05-12T03:15:11.871Z,499.00
2023-05-12T03:16:11.928Z,496.00
2023-05-12T03:17:12.101Z,496.00
2023-05-12T03:18:12.060Z,498.00
2023-05-12T03:19:12.228Z,497.00
2023-05-12T03:20:12.152Z,497.00
2023-05-12T03:21:12.179Z,498.00
2023-05-12T03:22:12.535Z,501.00
2023-05-12T03:23:12.297Z,503.00
2023-05-12T03:24:12.372Z,504.00
2023-05-12T03:25:12.388Z,504.00
2023-05-12T03:26:12.462Z,505.00
2023-05-12T03:27:12.500Z,506.00
2023-05-12T03:28:12.540Z,506.00
2023-05-12T03:29:12.580Z,507.00
2023-05-12T03:30:12.656Z,508.00
2023-05-12T03:31:12.733Z,508.00
2023-05-12T03:32:12.769Z,506.00
2023-05-12T03:33:12.807Z,507.00
2023-05-12T03:34:12.867Z,508.00
2023-05-12T03:35:12.897Z,507.00
2023-05-12T03:36:12.969Z,508.00
2023-05-12T03:37:13.563Z,508.00
2023-05-12T03:38:13.054Z,503.00
2023-05-12T03:39:13.099Z,503.00
2023-05-12T03:40:13.167Z,501.00
2023-05-12T03:41:13.208Z,500.00
2023-05-12T03:42:13.259Z,502.00
2023-05-12T03:43:13.338Z,501.00
2023-05-12T03:44:13.420Z,502.00
2023-05-12T03:45:13.418Z,501.00
2023-05-12T03:46:13.535Z,501.00
2023-05-12T03:47:13.641Z,500.00
2023-05-12T03:48:13.571Z,499.00
2023-05-12T03:49:13.590Z,498.00
2023-05-12T03:50:13.640Z,498.00
2023-05-12T03:51:13.706Z,498.00
2023-05-12T03:52:14.022Z,498.00
2023-05-12T03:53:13.832Z,499.00
2023-05-12T03:54:13.913Z,498.00
2023-05-12T03:55:13.920Z,499.00
2023-05-12T03:56:13.969Z,500.00
2023-05-12T03:57:14.073Z,499.00
2023-05-12T03:58:14.078Z,500.00
2023-05-12T03:59:15.009Z,502.00
2023-05-12T04:00:14.182Z,501.00
2023-05-12T04:01:14.236Z,500.00
2023-05-12T04:02:14.337Z,501.00
2023-05-12T04:03:14.460Z,503.00
2023-05-12T04:04:14.542Z,504.00
2023-05-12T04:05:14.445Z,505.00
2023-05-12T04:06:14.532Z,503.00
2023-05-12T04:07:15.029Z,502.00
2023-05-12T04:08:14.551Z,500.00
2023-05-12T04:09:14.643Z,498.00
2023-05-12T04:10:14.688Z,498.00
2023-05-12T04:11:14.717Z,497.00
2023-05-12T04:12:14.784Z,499.00
2023-05-12T04:13:14.841Z,500.00
2023-05-12T04:14:14.902Z,503.00
2023-05-12T04:15:14.901Z,504.00
2023-05-12T04:16:14.945Z,505.00
2023-05-12T04:17:15.029Z,504.00
2023-05-12T04:18:15.069Z,504.00
2023-05-12T04:19:15.132Z,503.00
2023-05-12T04:20:15.185Z,501.00
2023-05-12T04:21:15.249Z,502.00
2023-05-12T04:22:16.103Z,504.00
2023-05-12T04:23:15.352Z,503.00
2023-05-12T04:24:15.391Z,502.00
2023-05-12T04:25:15.459Z,498.00
2023-05-12T04:26:15.557Z,497.00
2023-05-12T04:27:16.059Z,497.00
2023-05-12T04:28:15.590Z,499.00
2023-05-12T04:29:15.637Z,499.00
2023-05-12T04:30:15.674Z,503.00
2023-05-12T04:31:15.744Z,503.00
2023-05-12T04:32:16.232Z,503.00
2023-05-12T04:33:15.812Z,505.00
2023-05-12T04:34:15.904Z,505.00
2023-05-12T04:35:15.929Z,505.00
2023-05-12T04:36:15.996Z,502.00
2023-05-12T04:37:16.021Z,501.00
2023-05-12T04:38:16.075Z,498.00
2023-05-12T04:39:16.117Z,497.00
2023-05-12T04:40:16.156Z,496.00
2023-05-12T04:41:16.230Z,497.00
2023-05-12T04:42:16.280Z,497.00
2023-05-12T04:44:16.314Z,495.00
2023-05-12T04:45:16.295Z,494.00
2023-05-12T04:46:16.389Z,494.00
2023-05-12T04:47:16.528Z,496.00
2023-05-12T04:48:16.259Z,499.00
2023-05-12T04:49:16.282Z,499.00
2023-05-12T04:50:16.295Z,500.00
2023-05-12T04:51:16.270Z,500.00
2023-05-12T04:52:16.250Z,500.00
2023-05-12T04:53:16.241Z,500.00
2023-05-12T04:54:16.231Z,504.00
2023-05-12T04:55:16.277Z,505.00
2023-05-12T04:56:16.228Z,503.00
2023-05-12T04:57:16.226Z,504.00
2023-05-12T04:58:16.225Z,503.00
2023-05-12T04:59:16.208Z,503.00
2023-05-12T05:00:16.211Z,505.00
2023-05-12T05:01:16.263Z,507.00
2023-05-12T05:02:16.228Z,507.00
2023-05-12T05:03:16.282Z,505.00
2023-05-12T05:04:16.189Z,507.00
2023-05-12T05:05:16.182Z,509.00
2023-05-12T05:06:16.157Z,509.00
2023-05-12T05:07:16.539Z,511.00
2023-05-12T05:08:16.181Z,509.00
2023-05-12T05:09:16.166Z,507.00
2023-05-12T05:10:16.148Z,506.00
2023-05-12T05:11:16.142Z,504.00
2023-05-12T05:12:16.577Z,507.00
2023-05-12T05:13:16.138Z,508.00
2023-05-12T05:14:16.128Z,506.00
2023-05-12T05:15:16.114Z,506.00
2023-05-12T05:16:16.142Z,509.00
2023-05-12T05:17:16.126Z,509.00
2023-05-12T05:18:16.108Z,506.00
2023-05-12T05:19:22.774Z,505.00
2023-05-12T05:20:17.199Z,504.00
2023-05-12T05:21:16.100Z,503.00
2023-05-12T05:22:16.068Z,502.00
2023-05-12T05:23:16.067Z,502.00
2023-05-12T05:24:16.090Z,502.00
2023-05-12T05:25:16.086Z,504.00
2023-05-12T05:26:16.069Z,505.00
2023-05-12T05:27:16.055Z,505.00
2023-05-12T05:28:16.044Z,503.00
2023-05-12T05:29:16.036Z,504.00
2023-05-12T05:30:16.034Z,503.00
2023-05-12T05:31:16.092Z,504.00
2023-05-12T05:32:16.090Z,504.00
2023-05-12T05:33:16.144Z,505.00
2023-05-12T05:34:16.215Z,508.00
2023-05-12T05:35:16.214Z,508.00
2023-05-12T05:36:16.227Z,512.00
2023-05-12T05:37:16.584Z,510.00
2023-05-12T05:38:16.354Z,508.00
2023-05-12T05:39:16.405Z,508.00
2023-05-12T05:40:16.417Z,510.00
2023-05-12T05:41:16.458Z,510.00
2023-05-12T05:42:16.508Z,509.00
2023-05-12T05:43:16.545Z,508.00
2023-05-12T05:44:16.616Z,507.00
2023-05-12T05:45:16.603Z,507.00
2023-05-12T05:46:16.633Z,509.00
2023-05-12T05:47:16.712Z,508.00
2023-05-12T05:48:16.694Z,519.00
2023-05-12T05:49:16.694Z,534.00
2023-05-12T05:50:16.704Z,534.00
2023-05-12T05:51:16.750Z,532.00
2023-05-12T05:52:17.056Z,591.00
2023-05-12T05:53:17.065Z,602.00
2023-05-12T05:54:16.919Z,695.00
2023-05-12T05:55:17.126Z,708.00
2023-05-12T05:56:16.993Z,719.00
2023-05-12T05:57:17.062Z,733.00
2023-05-12T05:58:17.053Z,806.00
2023-05-12T05:59:17.104Z,876.00
2023-05-12T06:00:17.120Z,897.00
2023-05-12T06:01:17.135Z,923.00
2023-05-12T06:02:17.248Z,903.00
2023-05-12T06:03:17.324Z,887.00
2023-05-12T06:04:17.272Z,893.00
2023-05-12T06:05:17.417Z,888.00
2023-05-12T06:06:17.248Z,889.00
2023-05-12T06:07:17.328Z,889.00
2023-05-12T06:08:17.329Z,891.00
2023-05-12T06:09:17.322Z,894.00
2023-05-12T06:10:17.417Z,900.00
2023-05-12T06:11:18.083Z,900.00
2023-05-12T06:12:17.573Z,903.00
2023-05-12T06:13:17.414Z,901.00
2023-05-12T06:14:17.482Z,899.00
2023-05-12T06:15:17.622Z,900.00
2023-05-12T06:16:17.567Z,898.00
2023-05-12T06:17:17.522Z,896.00
2023-05-12T06:18:17.564Z,893.00
2023-05-12T06:19:17.580Z,889.00
2023-05-12T06:20:17.612Z,885.00
2023-05-12T06:21:17.740Z,885.00
2023-05-12T06:22:17.673Z,884.00
2023-05-12T06:23:18.092Z,885.00
2023-05-12T06:24:17.712Z,882.00
2023-05-12T06:25:17.884Z,882.00
2023-05-12T06:26:17.790Z,880.00
2023-05-12T06:27:17.810Z,878.00
2023-05-12T06:28:17.845Z,875.00
2023-05-12T06:29:17.843Z,875.00
2023-05-12T06:30:18.037Z,872.00
2023-05-12T06:31:17.988Z,872.00
2023-05-12T06:32:18.179Z,869.00
2023-05-12T06:33:18.001Z,866.00
2023-05-12T06:34:18.004Z,864.00
2023-05-12T06:35:18.219Z,859.00
2023-05-12T06:36:18.130Z,855.00
2023-05-12T06:37:18.140Z,855.00
2023-05-12T06:38:18.614Z,853.00
2023-05-12T06:39:18.230Z,854.00
2023-05-12T06:40:18.251Z,854.00
2023-05-12T06:41:18.545Z,852.00
2023-05-12T06:42:18.297Z,850.00
2023-05-12T06:43:18.577Z,848.00
2023-05-12T06:44:18.355Z,847.00
2023-05-12T06:45:18.632Z,845.00
2023-05-12T06:46:18.520Z,842.00
2023-05-12T06:47:18.487Z,838.00
2023-05-12T06:48:18.581Z,834.00
2023-05-12T06:49:18.536Z,827.00
2023-05-12T06:50:18.555Z,823.00
2023-05-12T06:51:18.602Z,822.00
2023-05-12T06:52:18.643Z,821.00
2023-05-12T06:53:18.646Z,823.00
2023-05-12T06:54:18.704Z,830.00
2023-05-12T06:55:19.021Z,849.00
2023-05-12T06:56:18.761Z,936.00
2023-05-12T06:57:18.831Z,954.00
2023-05-12T06:58:18.889Z,977.00
2023-05-12T06:59:20.762Z,1004.00
2023-05-12T07:00:18.939Z,1122.00
2023-05-12T07:01:18.933Z,1152.00
2023-05-12T07:02:18.977Z,1234.00
2023-05-12T07:03:19.135Z,1223.00
2023-05-12T07:04:18.939Z,978.00
2023-05-12T07:05:19.282Z,964.00
2023-05-12T07:06:19.030Z,877.00
2023-05-12T07:07:19.006Z,836.00
2023-05-12T07:08:19.025Z,833.00
2023-05-12T07:09:19.072Z,840.00
2023-05-12T07:10:19.101Z,780.00
2023-05-12T07:11:19.109Z,739.00
2023-05-12T07:12:19.189Z,705.00
2023-05-12T07:13:19.222Z,681.00
2023-05-12T07:14:19.290Z,646.00
2023-05-12T07:15:19.684Z,632.00
2023-05-12T07:16:19.369Z,621.00
2023-05-12T07:17:19.323Z,609.00
2023-05-12T07:18:19.316Z,598.00
2023-05-12T07:19:19.336Z,585.00
2023-05-12T07:20:19.371Z,579.00
2023-05-12T07:21:19.408Z,571.00
2023-05-12T07:22:19.448Z,564.00
2023-05-12T07:23:19.476Z,558.00
2023-05-12T07:24:19.484Z,551.00
2023-05-12T07:25:19.820Z,546.00
2023-05-12T07:26:19.592Z,543.00
2023-05-12T07:27:19.593Z,540.00
2023-05-12T07:28:19.619Z,537.00
2023-05-12T07:29:19.679Z,539.00
2023-05-12T07:30:19.721Z,541.00
2023-05-12T07:31:19.792Z,546.00
2023-05-12T07:32:19.773Z,550.00
2023-05-12T07:33:20.110Z,552.00
2023-05-12T07:34:20.003Z,557.00
2023-05-12T07:35:20.028Z,555.00
2023-05-12T07:36:21.829Z,547.00
2023-05-12T07:37:19.938Z,540.00
2023-05-12T07:38:19.972Z,533.00
2023-05-12T07:39:20.060Z,525.00
2023-05-12T07:40:20.039Z,521.00
2023-05-12T07:41:20.060Z,519.00
2023-05-12T07:42:20.103Z,520.00
2023-05-12T07:43:20.143Z,519.00
2023-05-12T07:44:20.175Z,521.00
2023-05-12T07:45:20.393Z,519.00
2023-05-12T07:46:20.325Z,518.00
2023-05-12T07:47:20.308Z,519.00
2023-05-12T07:48:20.628Z,518.00
2023-05-12T07:49:20.389Z,519.00
2023-05-12T07:50:20.592Z,525.00
2023-05-12T07:51:20.457Z,607.00
2023-05-12T07:52:20.478Z,626.00
2023-05-12T07:53:20.627Z,655.00
2023-05-12T07:54:20.512Z,670.00
2023-05-12T07:55:20.851Z,685.00
2023-05-12T07:56:20.595Z,710.00
2023-05-12T07:57:20.644Z,734.00
2023-05-12T07:58:21.117Z,791.00
2023-05-12T07:59:20.638Z,753.00
2023-05-12T08:00:20.678Z,725.00
2023-05-12T08:01:20.729Z,723.00
2023-05-12T08:02:20.797Z,719.00
2023-05-12T08:03:21.172Z,718.00
2023-05-12T08:04:20.793Z,722.00
2023-05-12T08:05:20.977Z,732.00
2023-05-12T08:06:20.791Z,749.00
2023-05-12T08:07:20.802Z,759.00
2023-05-12T08:08:21.115Z,764.00
2023-05-12T08:09:20.878Z,770.00
2023-05-12T08:10:20.916Z,774.00
2023-05-12T08:11:20.935Z,775.00
2023-05-12T08:12:21.690Z,775.00
2023-05-12T08:13:21.061Z,776.00
2023-05-12T08:14:21.068Z,774.00
2023-05-12T08:15:21.401Z,772.00
2023-05-12T08:16:21.271Z,772.00
2023-05-12T08:17:21.269Z,773.00
2023-05-12T08:18:21.649Z,771.00
2023-05-12T08:19:21.351Z,771.00
2023-05-12T08:20:21.426Z,769.00
2023-05-12T08:21:21.504Z,764.00
2023-05-12T08:22:21.584Z,763.00
2023-05-12T08:23:21.545Z,762.00
2023-05-12T08:24:21.560Z,760.00
2023-05-12T08:25:21.899Z,757.00
2023-05-12T08:26:21.677Z,760.00
2023-05-12T08:27:21.712Z,759.00
2023-05-12T08:28:21.716Z,758.00
2023-05-12T08:29:21.810Z,755.00
2023-05-12T08:30:21.856Z,755.00
2023-05-12T08:31:21.902Z,755.00
2023-05-12T08:32:21.928Z,754.00
2023-05-12T08:33:21.948Z,753.00
2023-05-12T08:34:22.003Z,754.00
2023-05-12T08:35:22.152Z,754.00
2023-05-12T08:36:22.092Z,751.00
2023-05-12T08:37:22.118Z,749.00
2023-05-12T08:38:22.301Z,748.00
2023-05-12T08:39:22.176Z,746.00
2023-05-12T08:40:22.303Z,746.00
2023-05-12T08:41:22.257Z,744.00
2023-05-12T08:42:22.280Z,742.00
2023-05-12T08:43:22.362Z,741.00
2023-05-12T08:44:22.390Z,741.00
2023-05-12T08:45:22.524Z,740.00
2023-05-12T08:46:22.526Z,740.00
2023-05-12T08:47:22.513Z,742.00
2023-05-12T08:48:22.641Z,747.00
2023-05-12T08:49:22.507Z,748.00
2023-05-12T08:50:22.585Z,742.00
2023-05-12T08:51:22.601Z,731.00
2023-05-12T08:52:22.550Z,722.00
2023-05-12T08:53:22.625Z,720.00
2023-05-12T08:54:22.651Z,716.00
2023-05-12T08:55:23.874Z,706.00
2023-05-12T08:57:22.642Z,661.00
2023-05-12T08:58:33.948Z,686.00
2023-05-12T08:59:23.623Z,801.00
2023-05-12T09:00:22.764Z,843.00
2023-05-12T09:01:22.628Z,834.00
2023-05-12T09:02:22.686Z,827.00
2023-05-12T09:03:22.707Z,830.00
2023-05-12T09:04:22.823Z,893.00
2023-05-12T09:05:22.979Z,892.00
2023-05-12T09:06:22.596Z,889.00
2023-05-12T09:07:22.559Z,922.00
2023-05-12T09:08:22.573Z,894.00
2023-05-12T09:09:22.542Z,950.00
2023-05-12T09:11:22.549Z,954.00
2023-05-12T09:12:22.537Z,1072.00
2023-05-12T09:13:22.624Z,1088.00
2023-05-12T09:14:22.506Z,1108.00
2023-05-12T09:15:22.739Z,1117.00
2023-05-12T09:16:22.562Z,1189.00
2023-05-12T09:17:22.534Z,1209.00
2023-05-12T09:18:22.691Z,1226.00
2023-05-12T09:19:22.492Z,1275.00
2023-05-12T09:20:31.020Z,1285.00
2023-05-12T09:21:23.465Z,1331.00
2023-05-12T09:22:22.471Z,1346.00
2023-05-12T09:23:22.649Z,1392.00
2023-05-12T09:24:22.502Z,1409.00
2023-05-12T09:25:22.512Z,1425.00
2023-05-12T09:26:22.468Z,1524.00
2023-05-12T09:27:22.433Z,1445.00
2023-05-12T09:28:22.447Z,1478.00
2023-05-12T09:29:30.621Z,1496.00
2023-05-12T09:30:23.412Z,1501.00
2023-05-12T09:31:23.168Z,1566.00
2023-05-12T09:32:22.393Z,1579.00
2023-05-12T09:33:22.409Z,1602.00
2023-05-12T09:34:22.394Z,1620.00
2023-05-12T09:35:22.391Z,1642.00
2023-05-12T09:36:22.350Z,1657.00
2023-05-12T09:37:22.401Z,1651.00
2023-05-12T09:38:22.412Z,1683.00
2023-05-12T09:39:22.769Z,1719.00
2023-05-12T09:40:22.358Z,1734.00
2023-05-12T09:41:22.329Z,1767.00
2023-05-12T09:42:22.339Z,1774.00
2023-05-12T09:43:22.353Z,1792.00
2023-05-12T09:44:22.683Z,1612.00
2023-05-12T09:45:22.556Z,1550.00
2023-05-12T09:46:22.373Z,1122.00
2023-05-12T09:47:22.369Z,1338.00
2023-05-12T09:48:22.283Z,1162.00
2023-05-12T09:49:22.658Z,1507.00
2023-05-12T09:50:22.283Z,1382.00
2023-05-12T09:51:22.355Z,1295.00
2023-05-12T09:52:22.404Z,1347.00
2023-05-12T09:53:22.447Z,1356.00
2023-05-12T09:54:22.465Z,1485.00
2023-05-12T09:55:22.507Z,1488.00
2023-05-12T09:56:22.557Z,1392.00
2023-05-12T09:57:22.581Z,1373.00
2023-05-12T09:58:22.634Z,1289.00
2023-05-12T09:59:22.713Z,1216.00
2023-05-12T10:00:36.957Z,1240.00
2023-05-12T10:01:24.211Z,1256.00
2023-05-12T10:02:22.787Z,1242.00
2023-05-12T10:03:22.729Z,1229.00
2023-05-12T10:04:22.804Z,1049.00
2023-05-12T10:05:22.903Z,1064.00
2023-05-12T10:06:22.704Z,1101.00
2023-05-12T10:07:22.741Z,1113.00
2023-05-12T10:08:22.675Z,1194.00
2023-05-12T10:09:22.704Z,1159.00
2023-05-12T10:10:22.662Z,1132.00
2023-05-12T10:11:22.683Z,1094.00
2023-05-12T10:12:22.672Z,1096.00
2023-05-12T10:13:22.687Z,1101.00
2023-05-12T10:14:22.877Z,1093.00
2023-05-12T10:15:22.894Z,1087.00
2023-05-12T10:16:22.874Z,1090.00
2023-05-12T10:17:22.916Z,985.00
2023-05-12T10:18:23.012Z,979.00
2023-05-12T10:19:22.957Z,876.00
2023-05-12T10:20:23.053Z,890.00
2023-05-12T10:21:23.090Z,837.00
2023-05-12T10:22:23.127Z,811.00
2023-05-12T10:23:23.165Z,799.00
2023-05-12T10:24:23.233Z,790.00
2023-05-12T10:25:23.367Z,701.00
2023-05-12T10:26:23.295Z,677.00
2023-05-12T10:27:23.317Z,684.00
2023-05-12T10:28:23.324Z,683.00
2023-05-12T10:29:23.647Z,675.00
2023-05-12T10:30:23.395Z,660.00
2023-05-12T10:31:23.449Z,633.00
2023-05-12T10:32:23.409Z,621.00
2023-05-12T10:33:23.402Z,616.00
2023-05-12T10:34:23.647Z,608.00
2023-05-12T10:35:23.462Z,598.00
2023-05-12T10:36:23.458Z,591.00
2023-05-12T10:37:23.493Z,576.00
2023-05-12T10:38:23.504Z,577.00
2023-05-12T10:39:23.518Z,578.00
2023-05-12T10:40:23.533Z,577.00
2023-05-12T10:41:23.536Z,577.00
2023-05-12T10:42:23.557Z,574.00
2023-05-12T10:43:23.546Z,568.00
2023-05-12T10:44:23.569Z,568.00
2023-05-12T10:45:23.649Z,594.00
2023-05-12T10:46:23.671Z,597.00
2023-05-12T10:47:23.681Z,591.00
2023-05-12T10:48:23.717Z,576.00
2023-05-12T10:49:23.754Z,600.00
2023-05-12T10:50:23.777Z,590.00
2023-05-12T10:51:23.819Z,594.00
2023-05-12T10:52:23.837Z,591.00
2023-05-12T10:53:23.885Z,582.00
2023-05-12T10:54:23.964Z,574.00
2023-05-12T10:55:24.219Z,548.00
2023-05-12T10:56:24.133Z,545.00
2023-05-12T10:57:24.203Z,540.00
2023-05-12T10:58:24.440Z,532.00
2023-05-12T10:59:24.838Z,528.00
2023-05-12T11:00:24.643Z,522.00
2023-05-12T11:01:24.477Z,517.00
2023-05-12T11:02:24.914Z,511.00
2023-05-12T11:03:25.315Z,508.00
2023-05-12T11:04:24.399Z,506.00
2023-05-12T11:05:24.613Z,506.00
2023-05-12T11:06:25.321Z,507.00
2023-05-12T11:07:24.771Z,505.00
2023-05-12T11:08:24.931Z,503.00
2023-05-12T11:09:24.961Z,503.00
2023-05-12T11:10:24.624Z,506.00
2023-05-12T11:11:25.108Z,507.00
2023-05-12T11:12:24.495Z,504.00
2023-05-12T11:13:24.540Z,499.00
2023-05-12T11:14:24.689Z,496.00
2023-05-12T11:15:24.560Z,495.00
2023-05-12T11:16:24.579Z,496.00
2023-05-12T11:17:24.617Z,493.00
2023-05-12T11:18:24.665Z,491.00
2023-05-12T11:19:24.648Z,487.00
2023-05-12T11:20:24.646Z,487.00
2023-05-12T11:21:24.679Z,486.00
2023-05-12T11:22:24.696Z,488.00
2023-05-12T11:23:24.731Z,490.00
2023-05-12T11:24:25.151Z,493.00
2023-05-12T11:25:24.907Z,495.00
2023-05-12T11:26:24.808Z,499.00
2023-05-12T11:27:24.817Z,500.00
2023-05-12T11:28:24.849Z,500.00
2023-05-12T11:29:24.917Z,499.00
2023-05-12T11:30:24.923Z,501.00
2023-05-12T11:31:25.046Z,502.00
2023-05-12T11:32:25.092Z,504.00
2023-05-12T11:33:25.077Z,505.00
2023-05-12T11:34:25.237Z,505.00
2023-05-12T11:35:25.159Z,504.00
2023-05-12T11:36:25.211Z,506.00
2023-05-12T11:37:25.222Z,505.00
2023-05-12T11:38:25.289Z,503.00
2023-05-12T11:39:25.336Z,504.00
2023-05-12T11:40:25.437Z,503.00
2023-05-12T11:41:25.482Z,501.00
2023-05-12T11:42:25.988Z,502.00
2023-05-12T11:43:25.568Z,504.00
2023-05-12T11:44:25.702Z,502.00
2023-05-12T11:45:25.601Z,499.00
2023-05-12T11:46:25.634Z,493.00
2023-05-12T11:47:25.639Z,490.00
2023-05-12T11:48:25.644Z,487.00
2023-05-12T11:49:25.676Z,483.00
2023-05-12T11:50:25.764Z,481.00
2023-05-12T11:51:25.716Z,483.00
2023-05-12T11:52:25.754Z,485.00
2023-05-12T11:53:26.559Z,486.00
2023-05-12T11:54:26.189Z,486.00
2023-05-12T11:55:25.862Z,486.00
2023-05-12T11:56:25.889Z,487.00
2023-05-12T11:57:25.955Z,487.00
2023-05-12T11:58:25.924Z,487.00
2023-05-12T11:59:25.948Z,486.00
2023-05-12T12:00:25.962Z,487.00
2023-05-12T12:01:25.956Z,486.00
2023-05-12T12:02:26.037Z,486.00
2023-05-12T12:03:26.019Z,485.00
2023-05-12T12:04:26.103Z,487.00
2023-05-12T12:05:26.022Z,488.00
2023-05-12T12:06:26.045Z,487.00
2023-05-12T12:07:26.062Z,486.00
2023-05-12T12:08:26.141Z,487.00
2023-05-12T12:09:26.203Z,487.00
2023-05-12T12:10:26.281Z,483.00
2023-05-12T12:11:26.312Z,482.00
2023-05-12T12:12:26.325Z,483.00
2023-05-12T12:13:26.372Z,480.00
2023-05-12T12:14:26.706Z,480.00
2023-05-12T12:15:26.487Z,479.00
2023-05-12T12:16:26.589Z,480.00
2023-05-12T12:17:26.639Z,479.00
2023-05-12T12:18:26.648Z,478.00
2023-05-12T12:19:26.774Z,481.00
2023-05-12T12:20:27.237Z,482.00
2023-05-12T12:21:26.809Z,483.00
2023-05-12T12:22:26.825Z,484.00
2023-05-12T12:23:26.899Z,483.00
2023-05-12T12:24:26.923Z,483.00
2023-05-12T12:25:26.965Z,482.00
2023-05-12T12:26:27.036Z,481.00
2023-05-12T12:27:27.033Z,482.00
2023-05-12T12:28:27.071Z,482.00
2023-05-12T12:29:27.130Z,482.00
2023-05-12T12:30:27.701Z,481.00